sensor_id;sensor_type;location;lat;lon;timestamp;pressure;altitude;pressure_sealevel;temperature;humidity
10006;BME280;5042;42.626;23.382;2023-05-23T00:00:56;94275.84;;;11.49;100.00
10006;BME280;5042;42.626;23.382;2023-05-23T00:03:24;94233.38;;;11.25;100.00
10006;BME280;5042;42.626;23.382;2023-05-23T00:05:51;94244.69;;;11.39;100.00
10006;BME280;5042;42.626;23.382;2023-05-23T00:08:18;94275.47;;;11.65;100.00
10006;BME280;5042;42.626;23.382;2023-05-23T00:10:46;94277.94;;;11.73;100.00
10006;BME280;5042;42.626;23.382;2023-05-23T00:13:12;94280.34;;;11.81;100.00
10006;BME280;5042;42.626;23.382;2023-05-23T00:15:39;94275.69;;;11.70;100.00
10006;BME280;5042;42.626;23.382;2023-05-23T00:18:07;94275.28;;;11.66;100.00
10006;BME280;5042;42.626;23.382;2023-05-23T00:20:35;94268.19;;;11.67;100.00
10006;BME280;5042;42.626;23.382;2023-05-23T00:23:05;94266.13;;;11.42;100.00
10006;BME280;5042;42.626;23.382;2023-05-23T00:25:33;94261.75;;;11.15;100.00
10006;BME280;5042;42.626;23.382;2023-05-23T00:28:02;94204.63;;;10.62;100.00
10006;BME280;5042;42.626;23.382;2023-05-23T00:30:29;94258.63;;;10.85;100.00
10006;BME280;5042;42.626;23.382;2023-05-23T00:32:56;94247.66;;;10.74;100.00
10006;BME280;5042;42.626;23.382;2023-05-23T00:35:25;94242.41;;;10.74;100.00
10006;BME280;5042;42.626;23.382;2023-05-23T00:37:51;94243.59;;;10.72;100.00
10006;BME280;5042;42.626;23.382;2023-05-23T00:40:18;94288.50;;;10.90;100.00
10006;BME280;5042;42.626;23.382;2023-05-23T00:42:46;94276.94;;;10.78;100.00
10006;BME280;5042;42.626;23.382;2023-05-23T00:45:15;94284.28;;;10.96;100.00
10006;BME280;5042;42.626;23.382;2023-05-23T00:47:42;94268.03;;;10.79;100.00
10006;BME280;5042;42.626;23.382;2023-05-23T00:50:11;94284.25;;;10.89;100.00
10006;BME280;5042;42.626;23.382;2023-05-23T00:52:39;94276.00;;;10.92;100.00
10006;BME280;5042;42.626;23.382;2023-05-23T00:55:07;94281.38;;;10.84;100.00
10006;BME280;5042;42.626;23.382;2023-05-23T00:57:34;94263.97;;;10.70;100.00
10006;BME280;5042;42.626;23.382;2023-05-23T01:00:06;94281.97;;;10.79;100.00
10006;BME280;5042;42.626;23.382;2023-05-23T01:02:39;94266.22;;;10.73;100.00
10006;BME280;5042;42.626;23.382;2023-05-23T01:05:08;94281.25;;;10.92;100.00
10006;BME280;5042;42.626;23.382;2023-05-23T01:07:35;94280.44;;;10.98;100.00
10006;BME280;5042;42.626;23.382;2023-05-23T01:10:02;94260.94;;;11.01;100.00
10006;BME280;5042;42.626;23.382;2023-05-23T01:12:34;94247.91;;;10.86;100.00
10006;BME280;5042;42.626;23.382;2023-05-23T01:15:07;94262.25;;;10.90;100.00
10006;BME280;5042;42.626;23.382;2023-05-23T01:17:43;94254.00;;;10.93;100.00
10006;BME280;5042;42.626;23.382;2023-05-23T01:20:16;94262.72;;;11.00;100.00
10006;BME280;5042;42.626;23.382;2023-05-23T01:22:58;94246.16;;;11.00;100.00
10006;BME280;5042;42.626;23.382;2023-05-23T01:25:35;94252.69;;;11.17;100.00
10006;BME280;5042;42.626;23.382;2023-05-23T01:28:07;94256.38;;;11.23;100.00
10006;BME280;5042;42.626;23.382;2023-05-23T01:30:39;94260.44;;;11.32;100.00
10006;BME280;5042;42.626;23.382;2023-05-23T01:33:07;94261.69;;;11.43;100.00
10006;BME280;5042;42.626;23.382;2023-05-23T01:35:34;94255.66;;;11.49;100.00
10006;BME280;5042;42.626;23.382;2023-05-23T01:38:02;94258.28;;;11.49;100.00
10006;BME280;5042;42.626;23.382;2023-05-23T01:40:28;94249.00;;;11.60;100.00
10006;BME280;5042;42.626;23.382;2023-05-23T01:42:55;94255.22;;;11.45;100.00
10006;BME280;5042;42.626;23.382;2023-05-23T01:45:25;94246.75;;;11.37;100.00
10006;BME280;5042;42.626;23.382;2023-05-23T01:47:53;94249.13;;;11.25;100.00
10006;BME280;5042;42.626;23.382;2023-05-23T01:50:21;94241.72;;;11.00;100.00
10006;BME280;5042;42.626;23.382;2023-05-23T01:52:48;94240.22;;;10.78;100.00
10006;BME280;5042;42.626;23.382;2023-05-23T01:55:16;94251.16;;;10.88;100.00
10006;BME280;5042;42.626;23.382;2023-05-23T01:57:47;94245.28;;;10.86;100.00
10006;BME280;5042;42.626;23.382;2023-05-23T02:00:16;94248.72;;;10.80;100.00
10006;BME280;5042;42.626;23.382;2023-05-23T02:02:44;94258.34;;;10.73;100.00
10006;BME280;5042;42.626;23.382;2023-05-23T02:05:11;94239.50;;;10.63;100.00
10006;BME280;5042;42.626;23.382;2023-05-23T02:07:38;94245.19;;;10.66;100.00
10006;BME280;5042;42.626;23.382;2023-05-23T02:10:07;94248.78;;;10.58;100.00
10006;BME280;5042;42.626;23.382;2023-05-23T02:12:34;94271.88;;;10.48;100.00
10006;BME280;5042;42.626;23.382;2023-05-23T02:15:01;94265.50;;;10.29;100.00
10006;BME280;5042;42.626;23.382;2023-05-23T02:17:28;94287.88;;;10.32;100.00
10006;BME280;5042;42.626;23.382;2023-05-23T02:19:56;94277.03;;;10.35;100.00
10006;BME280;5042;42.626;23.382;2023-05-23T02:22:23;94275.22;;;10.35;100.00
10006;BME280;5042;42.626;23.382;2023-05-23T02:24:50;94280.03;;;10.32;100.00
10006;BME280;5042;42.626;23.382;2023-05-23T02:27:17;94277.53;;;10.24;100.00
10006;BME280;5042;42.626;23.382;2023-05-23T02:29:43;94279.44;;;10.30;100.00
10006;BME280;5042;42.626;23.382;2023-05-23T02:32:10;94283.03;;;10.29;100.00
10006;BME280;5042;42.626;23.382;2023-05-23T02:34:37;94265.78;;;10.19;100.00
10006;BME280;5042;42.626;23.382;2023-05-23T02:37:06;94222.94;;;9.99;100.00
10006;BME280;5042;42.626;23.382;2023-05-23T02:39:34;94265.00;;;10.19;100.00
10006;BME280;5042;42.626;23.382;2023-05-23T02:42:00;94269.44;;;10.18;100.00
10006;BME280;5042;42.626;23.382;2023-05-23T02:44:27;94266.19;;;10.16;100.00
10006;BME280;5042;42.626;23.382;2023-05-23T02:46:54;94268.41;;;10.19;100.00
10006;BME280;5042;42.626;23.382;2023-05-23T02:49:21;94267.66;;;10.26;100.00
10006;BME280;5042;42.626;23.382;2023-05-23T02:51:47;94271.03;;;10.19;100.00
10006;BME280;5042;42.626;23.382;2023-05-23T02:54:15;94272.78;;;10.12;100.00
10006;BME280;5042;42.626;23.382;2023-05-23T02:56:43;94257.47;;;10.09;100.00
10006;BME280;5042;42.626;23.382;2023-05-23T02:59:10;94264.38;;;10.17;100.00
10006;BME280;5042;42.626;23.382;2023-05-23T03:01:38;94256.44;;;10.10;100.00
10006;BME280;5042;42.626;23.382;2023-05-23T03:04:04;94263.09;;;10.06;100.00
10006;BME280;5042;42.626;23.382;2023-05-23T03:06:31;94256.03;;;10.07;100.00
10006;BME280;5042;42.626;23.382;2023-05-23T03:08:58;94254.16;;;10.01;100.00
10006;BME280;5042;42.626;23.382;2023-05-23T03:11:26;94250.00;;;10.06;100.00
10006;BME280;5042;42.626;23.382;2023-05-23T03:13:54;94252.09;;;9.96;100.00
10006;BME280;5042;42.626;23.382;2023-05-23T03:16:21;94257.53;;;9.94;100.00
10006;BME280;5042;42.626;23.382;2023-05-23T03:18:48;94262.22;;;9.99;100.00
10006;BME280;5042;42.626;23.382;2023-05-23T03:21:15;94266.44;;;10.00;100.00
10006;BME280;5042;42.626;23.382;2023-05-23T03:23:42;94255.16;;;10.00;100.00
10006;BME280;5042;42.626;23.382;2023-05-23T03:26:08;94262.63;;;10.03;100.00
10006;BME280;5042;42.626;23.382;2023-05-23T03:28:37;94274.59;;;10.12;100.00
10006;BME280;5042;42.626;23.382;2023-05-23T03:31:04;94268.97;;;10.15;100.00
10006;BME280;5042;42.626;23.382;2023-05-23T03:33:30;94271.81;;;10.13;100.00
10006;BME280;5042;42.626;23.382;2023-05-23T03:35:57;94271.59;;;10.15;100.00
10006;BME280;5042;42.626;23.382;2023-05-23T03:38:24;94277.28;;;10.18;100.00
10006;BME280;5042;42.626;23.382;2023-05-23T03:40:51;94280.88;;;10.17;100.00
10006;BME280;5042;42.626;23.382;2023-05-23T03:43:18;94282.47;;;10.33;100.00
10006;BME280;5042;42.626;23.382;2023-05-23T03:45:46;94284.50;;;10.38;100.00
10006;BME280;5042;42.626;23.382;2023-05-23T03:48:13;94283.16;;;10.42;100.00
10006;BME280;5042;42.626;23.382;2023-05-23T03:50:40;94281.38;;;10.49;100.00
10006;BME280;5042;42.626;23.382;2023-05-23T03:53:07;94292.78;;;10.63;100.00
10006;BME280;5042;42.626;23.382;2023-05-23T03:55:33;94254.09;;;10.72;100.00
10006;BME280;5042;42.626;23.382;2023-05-23T03:58:00;94249.91;;;10.84;100.00
10006;BME280;5042;42.626;23.382;2023-05-23T04:00:27;94253.66;;;11.03;100.00
10006;BME280;5042;42.626;23.382;2023-05-23T04:02:55;94253.53;;;11.18;100.00
10006;BME280;5042;42.626;23.382;2023-05-23T04:05:22;94264.97;;;11.58;100.00
10006;BME280;5042;42.626;23.382;2023-05-23T04:07:49;94258.59;;;11.94;100.00
10006;BME280;5042;42.626;23.382;2023-05-23T04:10:16;94257.38;;;12.10;100.00
10006;BME280;5042;42.626;23.382;2023-05-23T04:12:43;94253.75;;;12.38;100.00
10006;BME280;5042;42.626;23.382;2023-05-23T04:15:12;94264.28;;;12.51;100.00
10006;BME280;5042;42.626;23.382;2023-05-23T04:17:38;94263.44;;;12.57;100.00
10006;BME280;5042;42.626;23.382;2023-05-23T04:20:08;94265.91;;;12.25;100.00
10006;BME280;5042;42.626;23.382;2023-05-23T04:22:35;94261.84;;;12.43;100.00
10006;BME280;5042;42.626;23.382;2023-05-23T04:25:02;94266.69;;;12.72;100.00
10006;BME280;5042;42.626;23.382;2023-05-23T04:27:29;94263.81;;;12.87;100.00
10006;BME280;5042;42.626;23.382;2023-05-23T04:29:56;94260.94;;;13.02;100.00
10006;BME280;5042;42.626;23.382;2023-05-23T04:32:25;94266.94;;;13.23;100.00
10006;BME280;5042;42.626;23.382;2023-05-23T04:34:51;94269.31;;;13.44;100.00
10006;BME280;5042;42.626;23.382;2023-05-23T04:37:19;94269.22;;;13.64;100.00
10006;BME280;5042;42.626;23.382;2023-05-23T04:39:51;94265.44;;;13.53;100.00
10006;BME280;5042;42.626;23.382;2023-05-23T04:42:17;94264.03;;;13.51;100.00
10006;BME280;5042;42.626;23.382;2023-05-23T04:44:49;94259.69;;;14.02;100.00
10006;BME280;5042;42.626;23.382;2023-05-23T04:47:16;94267.28;;;14.16;100.00
10006;BME280;5042;42.626;23.382;2023-05-23T04:49:43;94266.19;;;14.31;100.00
10006;BME280;5042;42.626;23.382;2023-05-23T04:52:10;94270.50;;;14.18;100.00
10006;BME280;5042;42.626;23.382;2023-05-23T04:54:39;94265.88;;;14.14;100.00
10006;BME280;5042;42.626;23.382;2023-05-23T04:57:09;94274.63;;;14.14;100.00
10006;BME280;5042;42.626;23.382;2023-05-23T04:59:36;94276.63;;;14.19;100.00
10006;BME280;5042;42.626;23.382;2023-05-23T05:02:04;94277.53;;;13.99;100.00
10006;BME280;5042;42.626;23.382;2023-05-23T05:04:31;94285.28;;;13.94;100.00
10006;BME280;5042;42.626;23.382;2023-05-23T05:06:58;94286.69;;;13.58;100.00
10006;BME280;5042;42.626;23.382;2023-05-23T05:09:27;94291.53;;;13.62;100.00
10006;BME280;5042;42.626;23.382;2023-05-23T05:11:56;94288.06;;;13.68;100.00
10006;BME280;5042;42.626;23.382;2023-05-23T05:14:22;94285.72;;;13.46;100.00
10006;BME280;5042;42.626;23.382;2023-05-23T05:16:49;94301.88;;;13.56;100.00
10006;BME280;5042;42.626;23.382;2023-05-23T05:19:16;94290.69;;;13.68;100.00
10006;BME280;5042;42.626;23.382;2023-05-23T05:21:43;94294.75;;;13.64;100.00
10006;BME280;5042;42.626;23.382;2023-05-23T05:24:09;94302.38;;;13.78;100.00
10006;BME280;5042;42.626;23.382;2023-05-23T05:26:37;94295.91;;;13.81;100.00
10006;BME280;5042;42.626;23.382;2023-05-23T05:29:05;94292.38;;;13.94;100.00
10006;BME280;5042;42.626;23.382;2023-05-23T05:31:32;94293.31;;;14.06;100.00
10006;BME280;5042;42.626;23.382;2023-05-23T05:34:00;94299.56;;;14.12;100.00
10006;BME280;5042;42.626;23.382;2023-05-23T05:36:26;94307.16;;;13.95;100.00
10006;BME280;5042;42.626;23.382;2023-05-23T05:38:53;94301.69;;;13.96;100.00
10006;BME280;5042;42.626;23.382;2023-05-23T05:41:20;94307.88;;;14.09;100.00
10006;BME280;5042;42.626;23.382;2023-05-23T05:43:47;94303.50;;;14.03;100.00
10006;BME280;5042;42.626;23.382;2023-05-23T05:46:15;94291.44;;;14.13;100.00
10006;BME280;5042;42.626;23.382;2023-05-23T05:48:42;94299.22;;;14.33;100.00
10006;BME280;5042;42.626;23.382;2023-05-23T05:51:09;94305.50;;;14.64;100.00
10006;BME280;5042;42.626;23.382;2023-05-23T05:53:35;94299.59;;;14.87;100.00
10006;BME280;5042;42.626;23.382;2023-05-23T05:56:02;94297.38;;;15.46;100.00
10006;BME280;5042;42.626;23.382;2023-05-23T05:58:30;94299.91;;;16.20;100.00
10006;BME280;5042;42.626;23.382;2023-05-23T06:00:57;94290.94;;;16.98;100.00
10006;BME280;5042;42.626;23.382;2023-05-23T06:03:25;94298.16;;;17.50;100.00
10006;BME280;5042;42.626;23.382;2023-05-23T06:05:52;94296.75;;;17.99;100.00
10006;BME280;5042;42.626;23.382;2023-05-23T06:08:18;94293.84;;;18.30;100.00
10006;BME280;5042;42.626;23.382;2023-05-23T06:10:45;94295.72;;;18.46;100.00
10006;BME280;5042;42.626;23.382;2023-05-23T06:13:12;94296.25;;;18.48;100.00
10006;BME280;5042;42.626;23.382;2023-05-23T06:15:39;94296.59;;;18.69;100.00
10006;BME280;5042;42.626;23.382;2023-05-23T06:18:05;94300.31;;;19.18;100.00
10006;BME280;5042;42.626;23.382;2023-05-23T06:20:33;94297.41;;;19.81;100.00
10006;BME280;5042;42.626;23.382;2023-05-23T06:23:00;94301.75;;;20.14;100.00
10006;BME280;5042;42.626;23.382;2023-05-23T06:25:29;94307.69;;;20.21;100.00
10006;BME280;5042;42.626;23.382;2023-05-23T06:27:56;94291.56;;;20.06;100.00
10006;BME280;5042;42.626;23.382;2023-05-23T06:30:23;94312.25;;;19.99;100.00
10006;BME280;5042;42.626;23.382;2023-05-23T06:32:50;94304.38;;;20.09;100.00
10006;BME280;5042;42.626;23.382;2023-05-23T06:35:17;94304.78;;;19.96;100.00
10006;BME280;5042;42.626;23.382;2023-05-23T06:37:45;94303.72;;;20.24;100.00
10006;BME280;5042;42.626;23.382;2023-05-23T06:40:12;94308.97;;;20.41;100.00
10006;BME280;5042;42.626;23.382;2023-05-23T06:42:39;94311.13;;;21.08;100.00
10006;BME280;5042;42.626;23.382;2023-05-23T06:45:07;94313.00;;;21.50;100.00
10006;BME280;5042;42.626;23.382;2023-05-23T06:47:34;94308.09;;;21.85;100.00
10006;BME280;5042;42.626;23.382;2023-05-23T06:50:01;94302.50;;;21.81;100.00
10006;BME280;5042;42.626;23.382;2023-05-23T06:52:28;94310.50;;;21.81;100.00
10006;BME280;5042;42.626;23.382;2023-05-23T06:54:56;94302.47;;;20.59;100.00
10006;BME280;5042;42.626;23.382;2023-05-23T06:57:22;94303.28;;;20.32;100.00
10006;BME280;5042;42.626;23.382;2023-05-23T06:59:49;94293.91;;;20.02;100.00
10006;BME280;5042;42.626;23.382;2023-05-23T07:02:16;94305.78;;;20.44;100.00
10006;BME280;5042;42.626;23.382;2023-05-23T07:04:43;94287.38;;;20.42;100.00
10006;BME280;5042;42.626;23.382;2023-05-23T07:07:09;94294.06;;;20.45;100.00
10006;BME280;5042;42.626;23.382;2023-05-23T07:09:37;94286.28;;;20.38;100.00
10006;BME280;5042;42.626;23.382;2023-05-23T07:12:05;94284.47;;;20.44;100.00
10006;BME280;5042;42.626;23.382;2023-05-23T07:14:33;94271.91;;;20.66;100.00
10006;BME280;5042;42.626;23.382;2023-05-23T07:17:00;94285.94;;;20.89;100.00
10006;BME280;5042;42.626;23.382;2023-05-23T07:19:27;94294.50;;;20.91;100.00
10006;BME280;5042;42.626;23.382;2023-05-23T07:21:53;94282.88;;;20.70;100.00
10006;BME280;5042;42.626;23.382;2023-05-23T07:24:20;94278.91;;;20.78;100.00
10006;BME280;5042;42.626;23.382;2023-05-23T07:26:47;94283.84;;;20.31;100.00
10006;BME280;5042;42.626;23.382;2023-05-23T07:29:15;94281.03;;;20.16;100.00
10006;BME280;5042;42.626;23.382;2023-05-23T07:31:41;94268.69;;;19.83;100.00
10006;BME280;5042;42.626;23.382;2023-05-23T07:34:08;94270.13;;;19.46;100.00
10006;BME280;5042;42.626;23.382;2023-05-23T07:36:35;94264.16;;;19.39;100.00
10006;BME280;5042;42.626;23.382;2023-05-23T07:39:05;94262.00;;;19.36;100.00
10006;BME280;5042;42.626;23.382;2023-05-23T07:41:31;94270.97;;;19.74;100.00
10006;BME280;5042;42.626;23.382;2023-05-23T07:43:58;94260.69;;;20.32;100.00
10006;BME280;5042;42.626;23.382;2023-05-23T07:46:26;94259.94;;;21.06;100.00
10006;BME280;5042;42.626;23.382;2023-05-23T07:48:53;94264.13;;;20.97;100.00
10006;BME280;5042;42.626;23.382;2023-05-23T07:51:21;94268.66;;;20.59;100.00
10006;BME280;5042;42.626;23.382;2023-05-23T07:53:47;94265.16;;;20.86;100.00
10006;BME280;5042;42.626;23.382;2023-05-23T07:56:14;94224.25;;;21.07;100.00
10006;BME280;5042;42.626;23.382;2023-05-23T07:58:41;94266.50;;;20.88;100.00
10006;BME280;5042;42.626;23.382;2023-05-23T08:01:08;94266.75;;;20.87;100.00
10006;BME280;5042;42.626;23.382;2023-05-23T08:03:36;94256.63;;;20.89;100.00
10006;BME280;5042;42.626;23.382;2023-05-23T08:06:03;94243.91;;;21.01;100.00
10006;BME280;5042;42.626;23.382;2023-05-23T08:08:31;94260.41;;;20.93;100.00
10006;BME280;5042;42.626;23.382;2023-05-23T08:10:58;94252.84;;;21.27;100.00
10006;BME280;5042;42.626;23.382;2023-05-23T08:13:24;94260.09;;;21.32;100.00
10006;BME280;5042;42.626;23.382;2023-05-23T08:15:51;94249.34;;;21.64;100.00
10006;BME280;5042;42.626;23.382;2023-05-23T08:18:18;94256.13;;;22.02;100.00
10006;BME280;5042;42.626;23.382;2023-05-23T08:20:46;94254.13;;;21.67;100.00
10006;BME280;5042;42.626;23.382;2023-05-23T08:23:13;94259.47;;;21.14;100.00
10006;BME280;5042;42.626;23.382;2023-05-23T08:25:40;94256.28;;;20.80;100.00
10006;BME280;5042;42.626;23.382;2023-05-23T08:28:06;94250.22;;;20.90;100.00
10006;BME280;5042;42.626;23.382;2023-05-23T08:30:33;94254.75;;;21.32;100.00
10006;BME280;5042;42.626;23.382;2023-05-23T08:33:01;94249.03;;;21.60;100.00
10006;BME280;5042;42.626;23.382;2023-05-23T08:35:29;94258.72;;;21.87;100.00
10006;BME280;5042;42.626;23.382;2023-05-23T08:38:00;94231.22;;;21.76;100.00
10006;BME280;5042;42.626;23.382;2023-05-23T08:40:30;94232.59;;;21.99;100.00
10006;BME280;5042;42.626;23.382;2023-05-23T08:42:56;94253.72;;;22.11;100.00
10006;BME280;5042;42.626;23.382;2023-05-23T08:45:23;94248.59;;;21.94;100.00
10006;BME280;5042;42.626;23.382;2023-05-23T08:47:51;94250.16;;;21.80;100.00
10006;BME280;5042;42.626;23.382;2023-05-23T08:50:18;94250.72;;;21.92;100.00
10006;BME280;5042;42.626;23.382;2023-05-23T08:52:50;94234.47;;;21.89;100.00
10006;BME280;5042;42.626;23.382;2023-05-23T08:55:23;94253.47;;;22.13;100.00
10006;BME280;5042;42.626;23.382;2023-05-23T08:57:51;94248.91;;;22.03;100.00
10006;BME280;5042;42.626;23.382;2023-05-23T09:00:18;94254.78;;;22.05;100.00
10006;BME280;5042;42.626;23.382;2023-05-23T09:02:45;94252.09;;;21.95;100.00
10006;BME280;5042;42.626;23.382;2023-05-23T09:05:12;94229.19;;;22.19;100.00
10006;BME280;5042;42.626;23.382;2023-05-23T09:07:40;94244.44;;;22.44;100.00
10006;BME280;5042;42.626;23.382;2023-05-23T09:10:08;94232.16;;;22.43;100.00
10006;BME280;5042;42.626;23.382;2023-05-23T09:12:37;94246.59;;;22.83;100.00
10006;BME280;5042;42.626;23.382;2023-05-23T09:15:04;94256.19;;;22.95;92.70
10006;BME280;5042;42.626;23.382;2023-05-23T09:17:32;94247.53;;;23.54;92.84
10006;BME280;5042;42.626;23.382;2023-05-23T09:19:59;94244.88;;;23.39;96.33
10006;BME280;5042;42.626;23.382;2023-05-23T09:22:26;94232.19;;;23.75;83.16
10006;BME280;5042;42.626;23.382;2023-05-23T09:24:54;94231.69;;;24.18;80.38
10006;BME280;5042;42.626;23.382;2023-05-23T09:27:21;94249.16;;;24.54;66.51
10006;BME280;5042;42.626;23.382;2023-05-23T09:29:50;94249.47;;;24.43;69.73
10006;BME280;5042;42.626;23.382;2023-05-23T09:32:17;94246.66;;;24.97;73.57
10006;BME280;5042;42.626;23.382;2023-05-23T09:34:55;94240.81;;;25.49;68.98
10006;BME280;5042;42.626;23.382;2023-05-23T09:37:27;94251.56;;;25.20;57.07
10006;BME280;5042;42.626;23.382;2023-05-23T09:39:56;94193.78;;;24.40;57.77
10006;BME280;5042;42.626;23.382;2023-05-23T09:42:23;94247.53;;;24.53;65.13
10006;BME280;5042;42.626;23.382;2023-05-23T09:44:52;94221.47;;;24.25;58.24
10006;BME280;5042;42.626;23.382;2023-05-23T09:47:19;94236.47;;;24.26;67.18
10006;BME280;5042;42.626;23.382;2023-05-23T09:49:46;94238.13;;;24.61;63.38
10006;BME280;5042;42.626;23.382;2023-05-23T09:52:13;94233.03;;;24.60;63.66
10006;BME280;5042;42.626;23.382;2023-05-23T09:57:25;94225.97;;;23.90;57.19
10006;BME280;5042;42.626;23.382;2023-05-23T09:59:53;94222.06;;;24.17;64.39
10006;BME280;5042;42.626;23.382;2023-05-23T10:02:52;94224.38;;;23.89;57.92
10006;BME280;5042;42.626;23.382;2023-05-23T10:05:29;94221.06;;;24.07;62.25
10006;BME280;5042;42.626;23.382;2023-05-23T10:07:58;94232.00;;;24.55;60.30
10006;BME280;5042;42.626;23.382;2023-05-23T10:10:30;94217.31;;;24.48;66.50
10006;BME280;5042;42.626;23.382;2023-05-23T10:13:01;94223.03;;;24.31;60.38
10006;BME280;5042;42.626;23.382;2023-05-23T10:15:34;94218.41;;;24.47;59.19
10006;BME280;5042;42.626;23.382;2023-05-23T10:18:06;94219.34;;;24.22;58.71
10006;BME280;5042;42.626;23.382;2023-05-23T10:20:35;94224.47;;;23.74;57.23
10006;BME280;5042;42.626;23.382;2023-05-23T10:23:02;94216.94;;;23.70;58.58
10006;BME280;5042;42.626;23.382;2023-05-23T10:25:29;94203.03;;;23.68;66.27
10006;BME280;5042;42.626;23.382;2023-05-23T10:27:57;94204.47;;;24.05;69.29
10006;BME280;5042;42.626;23.382;2023-05-23T10:30:25;94216.38;;;24.63;63.79
10006;BME280;5042;42.626;23.382;2023-05-23T10:32:53;94209.09;;;24.97;59.25
10006;BME280;5042;42.626;23.382;2023-05-23T10:35:28;94204.50;;;24.40;58.86
10006;BME280;5042;42.626;23.382;2023-05-23T10:38:02;94200.44;;;24.08;58.79
10006;BME280;5042;42.626;23.382;2023-05-23T10:40:40;94194.72;;;23.80;60.35
10006;BME280;5042;42.626;23.382;2023-05-23T10:43:14;94203.72;;;23.40;59.45
10006;BME280;5042;42.626;23.382;2023-05-23T10:45:42;94203.19;;;23.27;52.71
10006;BME280;5042;42.626;23.382;2023-05-23T10:48:20;94184.28;;;23.14;52.31
10006;BME280;5042;42.626;23.382;2023-05-23T10:51:04;94177.47;;;23.37;62.68
10006;BME280;5042;42.626;23.382;2023-05-23T10:53:33;94190.19;;;23.76;55.52
10006;BME280;5042;42.626;23.382;2023-05-23T10:56:00;94200.03;;;23.15;52.18
10006;BME280;5042;42.626;23.382;2023-05-23T10:58:29;94190.44;;;22.94;55.57
10006;BME280;5042;42.626;23.382;2023-05-23T11:00:59;94186.72;;;22.79;51.15
10006;BME280;5042;42.626;23.382;2023-05-23T11:03:33;94178.69;;;22.84;53.72
10006;BME280;5042;42.626;23.382;2023-05-23T11:06:01;94194.13;;;23.23;50.22
10006;BME280;5042;42.626;23.382;2023-05-23T11:08:35;94179.16;;;23.17;57.87
10006;BME280;5042;42.626;23.382;2023-05-23T11:11:04;94181.88;;;23.12;57.79
10006;BME280;5042;42.626;23.382;2023-05-23T11:13:53;94170.59;;;23.25;60.43
10006;BME280;5042;42.626;23.382;2023-05-23T11:16:23;94175.19;;;23.69;60.09
10006;BME280;5042;42.626;23.382;2023-05-23T11:21:38;94182.88;;;23.26;49.35
10006;BME280;5042;42.626;23.382;2023-05-23T11:24:08;94175.47;;;22.98;48.22
10006;BME280;5042;42.626;23.382;2023-05-23T11:26:35;94178.13;;;22.98;49.60
10006;BME280;5042;42.626;23.382;2023-05-23T11:29:02;94161.03;;;23.09;51.04
10006;BME280;5042;42.626;23.382;2023-05-23T11:31:36;94169.47;;;23.37;52.90
10006;BME280;5042;42.626;23.382;2023-05-23T11:34:05;94171.41;;;23.26;48.11
10006;BME280;5042;42.626;23.382;2023-05-23T11:36:32;94159.47;;;22.88;50.14
10006;BME280;5042;42.626;23.382;2023-05-23T11:39:01;94151.16;;;22.99;53.95
10006;BME280;5042;42.626;23.382;2023-05-23T11:41:29;94154.84;;;23.19;51.20
10006;BME280;5042;42.626;23.382;2023-05-23T11:43:55;94165.06;;;22.81;47.51
10006;BME280;5042;42.626;23.382;2023-05-23T11:46:24;94156.81;;;22.72;47.59
10006;BME280;5042;42.626;23.382;2023-05-23T11:48:51;94151.19;;;22.63;50.53
10006;BME280;5042;42.626;23.382;2023-05-23T11:51:19;94142.41;;;22.53;51.41
10006;BME280;5042;42.626;23.382;2023-05-23T11:53:46;94144.81;;;22.54;48.88
10006;BME280;5042;42.626;23.382;2023-05-23T11:56:14;94135.50;;;22.31;51.18
10006;BME280;5042;42.626;23.382;2023-05-23T11:58:41;94145.34;;;22.46;51.72
10006;BME280;5042;42.626;23.382;2023-05-23T12:01:10;94155.78;;;22.53;49.55
10006;BME280;5042;42.626;23.382;2023-05-23T12:03:44;94141.88;;;22.66;51.92
10006;BME280;5042;42.626;23.382;2023-05-23T12:06:13;94140.28;;;22.34;50.59
10006;BME280;5042;42.626;23.382;2023-05-23T12:08:42;94135.19;;;22.58;51.99
10006;BME280;5042;42.626;23.382;2023-05-23T12:11:09;94135.44;;;22.67;50.46
10006;BME280;5042;42.626;23.382;2023-05-23T12:13:40;94131.69;;;22.63;51.51
10006;BME280;5042;42.626;23.382;2023-05-23T12:16:07;94108.75;;;22.52;53.31
10006;BME280;5042;42.626;23.382;2023-05-23T12:18:36;94127.22;;;22.43;50.24
10006;BME280;5042;42.626;23.382;2023-05-23T12:21:04;94125.00;;;22.76;53.67
10006;BME280;5042;42.626;23.382;2023-05-23T12:23:33;94121.94;;;23.23;54.43
10006;BME280;5042;42.626;23.382;2023-05-23T12:26:03;94129.44;;;23.16;49.10
10006;BME280;5042;42.626;23.382;2023-05-23T12:28:34;94123.94;;;22.72;49.37
10006;BME280;5042;42.626;23.382;2023-05-23T12:31:08;94112.53;;;22.35;49.01
10006;BME280;5042;42.626;23.382;2023-05-23T12:33:37;94115.72;;;22.32;49.04
10006;BME280;5042;42.626;23.382;2023-05-23T12:36:05;94113.84;;;22.33;49.07
10006;BME280;5042;42.626;23.382;2023-05-23T12:38:32;94108.50;;;22.48;50.44
10006;BME280;5042;42.626;23.382;2023-05-23T12:41:10;94103.97;;;22.38;50.49
10006;BME280;5042;42.626;23.382;2023-05-23T12:43:38;94105.03;;;22.37;50.58
10006;BME280;5042;42.626;23.382;2023-05-23T12:46:05;94096.50;;;22.40;51.13
10006;BME280;5042;42.626;23.382;2023-05-23T12:48:32;94094.88;;;22.39;49.46
10006;BME280;5042;42.626;23.382;2023-05-23T12:50:59;94076.69;;;22.52;50.89
10006;BME280;5042;42.626;23.382;2023-05-23T12:53:27;94088.13;;;22.73;49.31
10006;BME280;5042;42.626;23.382;2023-05-23T12:55:54;94084.94;;;22.65;49.00
10006;BME280;5042;42.626;23.382;2023-05-23T12:58:22;94085.22;;;22.54;49.40
10006;BME280;5042;42.626;23.382;2023-05-23T13:00:49;94083.38;;;22.54;49.29
10006;BME280;5042;42.626;23.382;2023-05-23T13:03:16;94075.09;;;22.51;46.64